createdAt,value
2023-06-30T00:00:28.840Z,0
2023-06-30T00:05:28.937Z,0
2023-06-30T00:10:27.612Z,0
2023-06-30T00:15:27.155Z,0
2023-06-30T00:20:27.165Z,0
2023-06-30T00:25:29.821Z,0
2023-06-30T00:30:26.684Z,0
2023-06-30T00:35:26.606Z,0
2023-06-30T00:40:26.951Z,0
2023-06-30T00:45:26.692Z,0
2023-06-30T00:50:26.818Z,0
2023-06-30T00:55:24.186Z,0
2023-06-30T01:00:05.687Z,0
2023-06-30T01:05:06.386Z,0
2023-06-30T01:10:06.359Z,0
2023-06-30T01:15:06.010Z,0
2023-06-30T01:20:06.699Z,0
2023-06-30T01:25:06.293Z,0
2023-06-30T01:30:06.819Z,0
2023-06-30T01:35:04.064Z,0
2023-06-30T01:40:03.145Z,0
2023-06-30T01:45:02.853Z,0
2023-06-30T01:50:03.449Z,0
2023-06-30T01:55:02.538Z,0
2023-06-30T02:00:03.075Z,0
2023-06-30T02:05:03.990Z,0
2023-06-30T02:10:46.305Z,0
2023-06-30T02:15:04.521Z,0
2023-06-30T02:20:00.648Z,0
2023-06-30T02:25:00.670Z,0
2023-06-30T02:30:00.915Z,0
2023-06-30T02:35:01.472Z,0
2023-06-30T02:40:01.431Z,0
2023-06-30T02:45:01.611Z,0
2023-06-30T02:50:01.108Z,0
2023-06-30T02:55:00.801Z,0
2023-06-30T02:59:58.160Z,0
2023-06-30T03:02:38.683Z,0
2023-06-30T03:06:31.325Z,0
2023-06-30T03:11:31.761Z,0
2023-06-30T03:16:32.266Z,0
2023-06-30T03:21:32.937Z,0
2023-06-30T03:26:33.220Z,0
2023-06-30T03:31:30.721Z,0
2023-06-30T03:36:29.846Z,0
2023-06-30T03:41:29.523Z,0
2023-06-30T03:46:29.264Z,0
2023-06-30T03:51:29.654Z,0
2023-06-30T03:56:29.942Z,0
2023-06-30T04:00:51.314Z,0
2023-06-30T04:05:50.565Z,0
2023-06-30T04:10:50.906Z,0
2023-06-30T04:15:51.314Z,0
2023-06-30T04:20:50.364Z,0.01
2023-06-30T04:25:50.578Z,0.01
2023-06-30T04:30:51.220Z,0.01
2023-06-30T04:35:51.632Z,0.02
2023-06-30T04:40:48.765Z,0.02
2023-06-30T04:45:50.257Z,0.02
2023-06-30T04:50:48.011Z,0.03
2023-06-30T04:55:48.041Z,0.03
2023-06-30T05:00:27.706Z,0.03
2023-06-30T05:05:27.008Z,0.04
2023-06-30T05:10:27.463Z,0.05
2023-06-30T05:15:26.929Z,0.06
2023-06-30T05:20:28.007Z,0.08
2023-06-30T05:25:24.351Z,0.09
2023-06-30T05:30:24.354Z,0.1
2023-06-30T05:35:24.123Z,0.11
2023-06-30T05:40:24.428Z,0.13
2023-06-30T05:45:24.205Z,0.14
2023-06-30T05:50:24.255Z,0.14
2023-06-30T05:55:23.880Z,0.15
2023-06-30T06:00:07.435Z,0.17
2023-06-30T06:05:07.361Z,0.18
2023-06-30T06:10:05.715Z,0.18
2023-06-30T06:15:05.231Z,0.18
2023-06-30T06:20:07.116Z,0.16
2023-06-30T06:25:05.526Z,0.18
2023-06-30T06:30:05.706Z,0.18
2023-06-30T06:35:04.863Z,0.16
2023-06-30T06:40:06.376Z,0.14
2023-06-30T06:45:03.666Z,0.14
2023-06-30T06:50:03.832Z,0.14
2023-06-30T06:55:03.680Z,0.15
2023-06-30T07:00:05.671Z,0.18
2023-06-30T07:05:03.578Z,0.22
2023-06-30T07:10:03.612Z,0.24
2023-06-30T07:15:05.800Z,0.25
2023-06-30T07:20:03.324Z,0.26
2023-06-30T07:25:14.213Z,0.26
2023-06-30T07:30:01.072Z,0.24
2023-06-30T07:35:00.461Z,0.23
2023-06-30T07:40:12.080Z,0.24
2023-06-30T07:45:00.310Z,0.25
2023-06-30T07:50:00.819Z,0.25
2023-06-30T07:55:00.702Z,0.27
2023-06-30T08:00:00.556Z,0.31
2023-06-30T08:02:06.416Z,0.32
2023-06-30T08:06:34.763Z,0.31
2023-06-30T08:11:25.518Z,0.25
2023-06-30T08:16:22.963Z,0.24
2023-06-30T08:21:23.580Z,0.26
2023-06-30T08:26:22.774Z,0.21
2023-06-30T08:31:26.924Z,0.18
2023-06-30T08:36:23.482Z,0.23
2023-06-30T08:41:22.587Z,0.23
2023-06-30T08:46:32.000Z,0.26
2023-06-30T08:51:33.101Z,0.29
2023-06-30T08:56:32.515Z,0.33
2023-06-30T09:00:53.430Z,0.37
2023-06-30T09:05:53.413Z,0.4
2023-06-30T09:10:54.029Z,0.4
2023-06-30T09:15:54.662Z,0.35
2023-06-30T09:20:53.479Z,0.31
2023-06-30T09:25:51.211Z,0.31
2023-06-30T09:30:50.551Z,0.31
2023-06-30T09:35:50.801Z,0.33
2023-06-30T09:40:50.186Z,0.38
2023-06-30T09:45:50.446Z,0.42
2023-06-30T09:50:50.494Z,0.4
2023-06-30T09:55:53.515Z,0.47
2023-06-30T10:00:51.760Z,0.6
2023-06-30T10:05:25.197Z,0.56
2023-06-30T10:10:24.706Z,0.54
2023-06-30T10:15:22.424Z,0.61
2023-06-30T10:20:30.887Z,0.7
2023-06-30T10:25:22.583Z,1
2023-06-30T10:30:22.470Z,0.88
2023-06-30T10:35:23.206Z,0.83
2023-06-30T10:40:22.914Z,0.85
2023-06-30T10:45:24.080Z,0.86
2023-06-30T10:50:31.296Z,0.82
2023-06-30T10:55:31.798Z,0.88
2023-06-30T11:00:04.605Z,0.91
2023-06-30T11:05:06.567Z,0.95
2023-06-30T11:10:07.284Z,0.93
2023-06-30T11:15:03.669Z,1
2023-06-30T11:20:04.881Z,0.91
2023-06-30T11:25:01.748Z,0.7
2023-06-30T11:30:01.254Z,0.61
2023-06-30T11:35:01.132Z,0.37
2023-06-30T11:40:00.948Z,0.15
2023-06-30T11:45:01.165Z,0.12
2023-06-30T11:50:00.338Z,0.1
2023-06-30T11:55:00.845Z,0.06
2023-06-30T12:00:00.429Z,0.04
2023-06-30T12:05:01.537Z,0.05
2023-06-30T12:09:56.982Z,0.08
2023-06-30T12:14:57.622Z,0.06
2023-06-30T12:19:55.779Z,0.08
2023-06-30T12:24:55.578Z,0.09
2023-06-30T12:29:55.416Z,0.08
2023-06-30T12:34:55.561Z,0.11
2023-06-30T12:39:55.103Z,0.14
2023-06-30T12:44:55.328Z,0.18
2023-06-30T12:49:52.280Z,0.19
2023-06-30T12:54:51.840Z,0.19
2023-06-30T12:59:51.876Z,0.27
2023-06-30T13:01:58.207Z,0.3
2023-06-30T13:06:14.511Z,0.41
2023-06-30T13:11:16.681Z,0.34
2023-06-30T13:16:14.369Z,0.46
2023-06-30T13:21:14.356Z,0.57
2023-06-30T13:26:12.880Z,0.59
2023-06-30T13:31:15.502Z,1.02
2023-06-30T13:36:13.038Z,0.66
2023-06-30T13:41:13.589Z,0.57
2023-06-30T13:46:13.955Z,0.53
2023-06-30T13:51:14.769Z,0.53
2023-06-30T13:56:16.303Z,0.71
2023-06-30T14:00:52.374Z,1.15
2023-06-30T14:05:35.475Z,1.03
2023-06-30T14:10:35.327Z,0.99
2023-06-30T14:15:36.548Z,0.76
2023-06-30T14:20:34.937Z,0.66
2023-06-30T14:25:34.658Z,0.77
2023-06-30T14:30:35.889Z,0.81
2023-06-30T14:35:34.793Z,0.84
2023-06-30T14:40:57.878Z,0.89
2023-06-30T14:45:33.560Z,0.87
2023-06-30T14:50:33.700Z,0.79
2023-06-30T14:55:32.333Z,0.76
2023-06-30T15:00:33.094Z,0.79
2023-06-30T15:05:22.885Z,0.75
2023-06-30T15:10:22.206Z,0.75
2023-06-30T15:15:23.170Z,0.73
2023-06-30T15:20:23.062Z,0.62
2023-06-30T15:25:24.098Z,0.42
2023-06-30T15:30:30.600Z,0.41
2023-06-30T15:35:30.479Z,0.39
2023-06-30T15:40:30.913Z,0.32
2023-06-30T15:45:31.371Z,0.26
2023-06-30T15:50:31.533Z,0.16
2023-06-30T15:55:33.900Z,0.17
2023-06-30T16:00:29.649Z,0.1
2023-06-30T16:05:30.775Z,0.1
2023-06-30T16:10:29.849Z,0.06
2023-06-30T16:15:30.286Z,0.16
2023-06-30T16:20:30.724Z,0.21
2023-06-30T16:25:32.738Z,0.13
2023-06-30T16:30:31.493Z,0.14
2023-06-30T16:35:30.138Z,0.17
2023-06-30T16:40:29.320Z,0.13
2023-06-30T16:45:29.670Z,0.09
2023-06-30T16:50:29.528Z,0.08
2023-06-30T16:55:29.692Z,0.06
2023-06-30T17:00:27.758Z,0.08
2023-06-30T17:05:13.981Z,0.1
2023-06-30T17:10:12.520Z,0.13
2023-06-30T17:15:12.580Z,0.11
2023-06-30T17:20:12.989Z,0.09
2023-06-30T17:25:20.633Z,0.08
2023-06-30T17:30:12.874Z,0.07
2023-06-30T17:35:12.343Z,0.07
2023-06-30T17:40:13.821Z,0.06
2023-06-30T17:45:10.240Z,0.06
2023-06-30T17:50:09.810Z,0.05
2023-06-30T17:55:09.925Z,0.04
2023-06-30T18:00:10.074Z,0.03
2023-06-30T18:05:10.637Z,0.02
2023-06-30T18:10:10.271Z,0.02
2023-06-30T18:15:25.034Z,0.02
2023-06-30T18:20:09.452Z,0.02
2023-06-30T18:25:08.226Z,0.02
2023-06-30T18:30:08.647Z,0.02
2023-06-30T18:35:08.417Z,0.02
2023-06-30T18:40:08.287Z,0.02
2023-06-30T18:45:08.238Z,0.02
2023-06-30T18:50:08.023Z,0.02
2023-06-30T18:55:08.134Z,0.01
2023-06-30T19:00:08.105Z,0.01
2023-06-30T19:05:09.252Z,0.01
2023-06-30T19:10:05.704Z,0.01
2023-06-30T19:15:04.875Z,0
2023-06-30T19:20:05.905Z,0
2023-06-30T19:25:04.563Z,0
2023-06-30T19:30:04.651Z,0
2023-06-30T19:35:04.900Z,0
2023-06-30T19:40:04.389Z,0
2023-06-30T19:45:04.362Z,0
2023-06-30T19:50:02.361Z,0
2023-06-30T19:55:00.842Z,0
2023-06-30T20:00:00.889Z,0
2023-06-30T20:05:01.237Z,0
2023-06-30T20:10:00.610Z,0
2023-06-30T20:15:00.323Z,0
2023-06-30T20:20:01.348Z,0
2023-06-30T20:25:00.787Z,0
2023-06-30T20:30:02.112Z,0
2023-06-30T20:34:59.683Z,0
2023-06-30T20:39:57.973Z,0
2023-06-30T20:44:57.677Z,0
2023-06-30T20:49:58.018Z,0
2023-06-30T20:54:57.601Z,0
2023-06-30T20:59:59.058Z,0
2023-06-30T21:02:06.166Z,0
2023-06-30T21:06:23.871Z,0
2023-06-30T21:11:30.593Z,0
2023-06-30T21:16:31.866Z,0
2023-06-30T21:21:31.416Z,0
2023-06-30T21:26:32.055Z,0
2023-06-30T21:31:32.770Z,0
2023-06-30T21:36:32.100Z,0
2023-06-30T21:41:30.330Z,0
2023-06-30T21:46:30.564Z,0
2023-06-30T21:51:45.255Z,0
2023-06-30T21:56:30.417Z,0
2023-06-30T22:00:54.320Z,0
2023-06-30T22:05:53.018Z,0
2023-06-30T22:10:52.954Z,0
2023-06-30T22:15:53.865Z,0
2023-06-30T22:20:52.583Z,0
2023-06-30T22:25:49.437Z,0
2023-06-30T22:30:49.668Z,0
2023-06-30T22:35:49.381Z,0
2023-06-30T22:40:49.701Z,0
2023-06-30T22:45:49.933Z,0
2023-06-30T22:50:49.647Z,0
2023-06-30T22:55:50.543Z,0
2023-06-30T23:00:25.182Z,0
2023-06-30T23:05:25.076Z,0
2023-06-30T23:10:24.881Z,0
2023-06-30T23:15:24.904Z,0
2023-06-30T23:20:24.607Z,0
2023-06-30T23:25:24.760Z,0
2023-06-30T23:30:24.285Z,0
2023-06-30T23:35:23.992Z,0
2023-06-30T23:40:22.554Z,0
2023-06-30T23:45:32.652Z,0
2023-06-30T23:50:32.360Z,0
2023-06-30T23:55:32.245Z,0
